createdAt,value
2022-08-14T00:02:02.358Z,99625.44
2022-08-14T00:04:35.528Z,99627.00
2022-08-14T00:07:14.977Z,99616.50
2022-08-14T00:09:56.009Z,99623.13
2022-08-14T00:12:33.014Z,99615.44
2022-08-14T00:15:03.057Z,99604.47
2022-08-14T00:17:31.502Z,99601.81
2022-08-14T00:20:23.741Z,99594.72
2022-08-14T00:22:57.364Z,99584.94
2022-08-14T00:25:30.645Z,99582.28
2022-08-14T00:28:15.110Z,99583.78
2022-08-14T00:30:47.038Z,99588.84
2022-08-14T00:33:16.805Z,99579.53
2022-08-14T00:36:35.844Z,99592.84
2022-08-14T00:38:36.918Z,99592.03
2022-08-14T00:41:10.876Z,99595.53
2022-08-14T00:43:43.113Z,99599.50
2022-08-14T00:46:32.902Z,99601.47
2022-08-14T00:49:00.099Z,99605.75
2022-08-14T00:51:34.801Z,99606.59
2022-08-14T00:54:16.809Z,99600.75
2022-08-14T00:56:55.401Z,99596.47
2022-08-14T00:59:25.475Z,99605.44
2022-08-14T01:01:58.207Z,99613.03
2022-08-14T01:04:51.546Z,99612.34
2022-08-14T01:07:21.160Z,99614.34
2022-08-14T01:09:53.328Z,99613.53
2022-08-14T01:12:27.106Z,99608.56
2022-08-14T01:14:59.374Z,99612.41
2022-08-14T01:17:52.085Z,99620.03
2022-08-14T01:20:39.418Z,99607.56
2022-08-14T01:23:16.219Z,99606.03
2022-08-14T01:25:49.129Z,99606.16
2022-08-14T01:28:46.517Z,99609.28
2022-08-14T01:31:12.485Z,99608.53
2022-08-14T01:35:15.944Z,99603.06
2022-08-14T01:36:37.137Z,99605.03
2022-08-14T01:39:12.933Z,99605.84
2022-08-14T01:41:44.070Z,99607.03
2022-08-14T01:44:33.027Z,99601.19
2022-08-14T01:47:06.007Z,99609.75
2022-08-14T01:49:35.411Z,99610.53
2022-08-14T01:52:08.960Z,99612.09
2022-08-14T01:54:43.755Z,99611.28
2022-08-14T01:57:26.797Z,99610.06
2022-08-14T02:00:19.228Z,99604.56
2022-08-14T02:02:52.815Z,99614.34
2022-08-14T02:05:21.532Z,99610.09
2022-08-14T02:07:55.906Z,99607.75
2022-08-14T02:10:31.850Z,99607.03
2022-08-14T02:13:15.910Z,99600.81
2022-08-14T02:15:45.689Z,99597.72
2022-08-14T02:18:18.348Z,99595.38
2022-08-14T02:20:51.258Z,99597.28
2022-08-14T02:23:23.906Z,99600.09
2022-08-14T02:26:24.356Z,99595.38
2022-08-14T02:28:57.670Z,99602.78
2022-08-14T02:31:42.516Z,99598.50
2022-08-14T02:34:21.935Z,99585.31
2022-08-14T02:37:04.689Z,99589.19
2022-08-14T02:39:37.127Z,99590.00
2022-08-14T02:42:13.018Z,99586.94
2022-08-14T02:44:48.823Z,99586.97
2022-08-14T02:47:20.781Z,99587.78
2022-08-14T02:49:56.667Z,99588.56
2022-08-14T02:52:26.719Z,99587.03
2022-08-14T02:54:57.337Z,99590.91
2022-08-14T02:57:40.341Z,99590.16
2022-08-14T03:00:13.043Z,99591.69
2022-08-14T03:02:56.775Z,99575.72
2022-08-14T03:05:35.877Z,99579.22
2022-08-14T03:08:09.000Z,99582.31
2022-08-14T03:10:41.626Z,99570.66
2022-08-14T03:13:19.069Z,99571.03
2022-08-14T03:15:54.936Z,99576.50
2022-08-14T03:18:30.896Z,99579.91
2022-08-14T03:21:08.024Z,99581.81
2022-08-14T03:23:38.098Z,99581.38
2022-08-14T03:26:08.644Z,99586.06
2022-08-14T03:28:43.592Z,99580.59
2022-08-14T03:31:13.605Z,99581.88
2022-08-14T03:33:42.344Z,99581.31
2022-08-14T03:37:50.921Z,99578.69
2022-08-14T03:39:12.538Z,99581.94
2022-08-14T03:41:47.695Z,99580.88
2022-08-14T03:45:27.957Z,99573.38
2022-08-14T03:47:06.744Z,99580.19
2022-08-14T03:49:42.526Z,99579.13
2022-08-14T03:52:27.771Z,99583.69
2022-08-14T03:55:01.329Z,99577.41
2022-08-14T03:57:37.097Z,99578.13
2022-08-14T04:00:13.936Z,99577.97
2022-08-14T04:02:59.315Z,99578.31
2022-08-14T04:05:27.481Z,99580.03
2022-08-14T04:08:08.380Z,99574.22
2022-08-14T04:10:45.293Z,99575.91
2022-08-14T04:13:18.375Z,99572.16
2022-08-14T04:16:01.218Z,99579.38
2022-08-14T04:18:30.617Z,99576.94
2022-08-14T04:20:59.371Z,99571.13
2022-08-14T04:23:32.909Z,99576.56
2022-08-14T04:26:03.037Z,99578.47
2022-08-14T04:29:06.741Z,99583.19
2022-08-14T04:31:25.058Z,99576.91
2022-08-14T04:34:11.915Z,99584.91
2022-08-14T04:36:59.602Z,99580.84
2022-08-14T04:39:46.565Z,99589.50
2022-08-14T04:42:33.078Z,99599.59
2022-08-14T04:45:01.600Z,99589.78
2022-08-14T04:47:53.697Z,99594.94
2022-08-14T04:50:43.753Z,99588.53
2022-08-14T04:53:13.113Z,99582.78
2022-08-14T04:55:43.074Z,99584.91
2022-08-14T04:58:21.993Z,99581.78
2022-08-14T05:01:00.107Z,99578.97
2022-08-14T05:03:31.984Z,99574.94
2022-08-14T05:06:02.029Z,99585.22
2022-08-14T05:08:56.639Z,99576.53
2022-08-14T05:11:20.750Z,99572.97
2022-08-14T05:16:38.790Z,99566.59
2022-08-14T05:19:19.099Z,99575.38
2022-08-14T05:22:16.414Z,99577.03
2022-08-14T05:24:51.299Z,99571.78
2022-08-14T05:27:22.691Z,99567.56
2022-08-14T05:29:55.389Z,99571.41
2022-08-14T05:32:27.337Z,99572.34
2022-08-14T05:34:59.801Z,99572.63
2022-08-14T05:37:30.340Z,99582.44
2022-08-14T05:40:02.216Z,99578.19
2022-08-14T05:42:31.975Z,99575.69
2022-08-14T05:45:04.260Z,99572.50
2022-08-14T05:47:39.017Z,99572.44
2022-08-14T05:50:18.411Z,99567.56
2022-08-14T05:52:50.520Z,99574.00
2022-08-14T05:55:22.074Z,99584.50
2022-08-14T05:57:54.495Z,99579.63
2022-08-14T06:00:29.300Z,99572.81
2022-08-14T06:03:00.075Z,99578.16
2022-08-14T06:05:30.220Z,99570.44
2022-08-14T06:07:59.554Z,99570.16
2022-08-14T06:10:28.856Z,99573.53
2022-08-14T06:12:58.675Z,99561.94
2022-08-14T06:15:30.264Z,99573.19
2022-08-14T06:18:00.234Z,99564.78
2022-08-14T06:20:30.995Z,99566.66
2022-08-14T06:23:00.099Z,99563.63
2022-08-14T06:25:28.958Z,99566.34
2022-08-14T06:27:58.074Z,99564.44
2022-08-14T06:30:46.487Z,99563.19
2022-08-14T06:33:18.047Z,99566.63
2022-08-14T06:35:49.961Z,99560.28
2022-08-14T06:38:19.905Z,99565.34
2022-08-14T06:40:50.792Z,99566.94
2022-08-14T06:43:20.420Z,99555.38
2022-08-14T06:45:54.579Z,99559.63
2022-08-14T06:48:26.561Z,99548.25
2022-08-14T06:50:58.148Z,99552.84
2022-08-14T06:53:28.296Z,99552.09
2022-08-14T06:56:01.996Z,99553.50
2022-08-14T06:58:32.519Z,99555.34
2022-08-14T07:01:27.535Z,99543.34
2022-08-14T07:04:23.223Z,99554.94
2022-08-14T07:06:59.012Z,99554.88
2022-08-14T07:09:40.600Z,99544.00
2022-08-14T07:12:54.809Z,99550.41
2022-08-14T07:15:07.414Z,99554.00
2022-08-14T07:17:36.310Z,99564.66
2022-08-14T07:20:07.309Z,99555.41
2022-08-14T07:22:56.172Z,99561.38
2022-08-14T07:25:32.523Z,99558.16
2022-08-14T07:28:01.915Z,99560.63
2022-08-14T07:30:34.603Z,99556.97
2022-08-14T07:33:03.737Z,99560.47
2022-08-14T07:35:42.891Z,99558.44
2022-08-14T07:38:24.048Z,99558.06
2022-08-14T07:40:53.300Z,99553.66
2022-08-14T07:43:22.982Z,99557.13
2022-08-14T07:45:53.810Z,99547.66
2022-08-14T07:48:24.998Z,99544.44
2022-08-14T07:50:57.224Z,99548.88
2022-08-14T07:53:34.172Z,99543.69
2022-08-14T07:56:22.060Z,99544.16
2022-08-14T07:58:58.185Z,99539.63
2022-08-14T08:01:29.797Z,99543.91
2022-08-14T08:04:01.148Z,99538.09
2022-08-14T08:06:30.717Z,99541.63
2022-08-14T08:09:03.381Z,99537.00
2022-08-14T08:11:37.339Z,99538.84
2022-08-14T08:14:10.696Z,99536.09
2022-08-14T08:16:51.167Z,99538.22
2022-08-14T08:19:19.889Z,99533.59
2022-08-14T08:21:48.243Z,99538.00
2022-08-14T08:24:18.504Z,99541.25
2022-08-14T08:26:50.747Z,99532.69
2022-08-14T08:29:28.690Z,99530.84
2022-08-14T08:32:01.582Z,99537.31
2022-08-14T08:34:33.570Z,99533.31
2022-08-14T08:37:07.037Z,99529.63
2022-08-14T08:40:02.951Z,99533.78
2022-08-14T08:42:38.678Z,99535.63
2022-08-14T08:45:23.641Z,99533.31
2022-08-14T08:47:52.751Z,99525.16
2022-08-14T08:50:31.722Z,99519.66
2022-08-14T08:53:02.522Z,99515.31
2022-08-14T08:55:38.619Z,99512.06
2022-08-14T08:58:12.575Z,99512.63
2022-08-14T09:00:49.698Z,99504.94
2022-08-14T09:03:27.484Z,99512.19
2022-08-14T09:05:57.850Z,99507.66
2022-08-14T09:08:31.519Z,99507.16
2022-08-14T09:11:19.461Z,99504.22
2022-08-14T09:13:51.109Z,99511.00
2022-08-14T09:16:24.895Z,99500.00
2022-08-14T09:18:53.845Z,99500.97
2022-08-14T09:21:24.932Z,99489.59
2022-08-14T09:24:29.009Z,99497.94
2022-08-14T09:26:50.258Z,99497.28
2022-08-14T09:29:23.090Z,99486.75
2022-08-14T09:31:57.607Z,99494.00
2022-08-14T09:34:58.234Z,99489.34
2022-08-14T09:37:43.728Z,99485.84
2022-08-14T09:40:22.270Z,99482.53
2022-08-14T09:43:03.923Z,99477.72
2022-08-14T09:45:40.281Z,99479.91
2022-08-14T09:48:29.857Z,99478.91
2022-08-14T09:54:19.207Z,99476.34
2022-08-14T09:56:32.961Z,99476.50
2022-08-14T09:59:16.225Z,99472.84
2022-08-14T10:01:53.176Z,99476.56
2022-08-14T10:04:34.768Z,99477.00
2022-08-14T10:07:08.114Z,99476.13
2022-08-14T10:09:59.957Z,99471.53
2022-08-14T10:12:52.954Z,99466.38
2022-08-14T10:15:29.867Z,99468.31
2022-08-14T10:18:17.750Z,99460.66
2022-08-14T10:20:58.133Z,99477.84
2022-08-14T10:23:35.021Z,99477.25
2022-08-14T10:26:06.660Z,99472.59
2022-08-14T10:29:18.638Z,99472.91
2022-08-14T10:31:44.934Z,99479.81
2022-08-14T10:34:15.232Z,99483.53
2022-08-14T10:36:48.027Z,99481.03
2022-08-14T10:39:19.155Z,99473.53
2022-08-14T10:41:54.063Z,99475.56
2022-08-14T10:44:29.818Z,99469.25
2022-08-14T10:47:40.252Z,99475.63
2022-08-14T10:49:59.715Z,99472.59
2022-08-14T10:52:33.930Z,99469.63
2022-08-14T10:55:14.292Z,99460.69
2022-08-14T10:57:51.755Z,99460.25
2022-08-14T11:00:30.364Z,99454.94
2022-08-14T11:03:09.727Z,99447.31
2022-08-14T11:05:43.284Z,99439.19
2022-08-14T11:08:13.875Z,99434.41
2022-08-14T11:10:48.384Z,99430.03
2022-08-14T11:13:24.067Z,99426.69
2022-08-14T11:15:57.683Z,99434.41
2022-08-14T11:18:35.646Z,99432.22
2022-08-14T11:21:08.448Z,99425.84
2022-08-14T11:23:41.290Z,99428.53
2022-08-14T11:26:13.354Z,99433.88
2022-08-14T11:28:47.409Z,99428.69
2022-08-14T11:31:22.247Z,99439.53
2022-08-14T11:33:59.470Z,99445.88
2022-08-14T11:37:02.351Z,99450.06
2022-08-14T11:39:23.126Z,99451.56
2022-08-14T11:42:55.280Z,99454.97
2022-08-14T11:45:00.236Z,99447.16
2022-08-14T11:47:35.468Z,99442.91
2022-08-14T11:50:34.133Z,99435.88
2022-08-14T11:53:08.779Z,99424.53
2022-08-14T11:55:39.505Z,99423.91
2022-08-14T11:58:11.733Z,99427.13
2022-08-14T12:00:50.338Z,99420.34
2022-08-14T12:03:37.668Z,99413.59
2022-08-14T12:06:28.071Z,99417.97
2022-08-14T12:09:01.857Z,99412.91
2022-08-14T12:11:43.048Z,99408.88
2022-08-14T12:14:13.450Z,99405.25
2022-08-14T12:17:02.116Z,99402.34
2022-08-14T12:19:33.400Z,99397.63
2022-08-14T12:22:06.847Z,99398.16
2022-08-14T12:24:40.087Z,99395.84
2022-08-14T12:27:09.421Z,99397.31
2022-08-14T12:29:38.170Z,99400.91
2022-08-14T12:32:08.905Z,99396.00
2022-08-14T12:34:45.100Z,99398.56
2022-08-14T12:37:14.845Z,99405.59
2022-08-14T12:39:43.239Z,99417.34
2022-08-14T12:42:34.071Z,99417.47
2022-08-14T12:45:03.721Z,99409.84
2022-08-14T12:47:32.888Z,99409.00
2022-08-14T12:50:01.568Z,99407.38
2022-08-14T12:52:41.610Z,99406.16
2022-08-14T12:55:22.355Z,99408.22
2022-08-14T12:57:55.467Z,99403.66
2022-08-14T13:00:25.860Z,99404.75
2022-08-14T13:02:56.455Z,99404.78
2022-08-14T13:05:28.382Z,99402.34
2022-08-14T13:07:59.151Z,99401.38
2022-08-14T13:10:47.131Z,99402.28
2022-08-14T13:13:18.412Z,99406.66
2022-08-14T13:15:57.530Z,99399.00
2022-08-14T13:18:28.155Z,99400.28
2022-08-14T13:21:01.752Z,99407.44
2022-08-14T13:23:37.551Z,99405.09
2022-08-14T13:26:08.358Z,99405.50
2022-08-14T13:29:02.806Z,99401.97
2022-08-14T13:31:32.465Z,99396.13
2022-08-14T13:34:04.418Z,99384.25
2022-08-14T13:36:51.457Z,99382.97
2022-08-14T13:39:25.261Z,99388.56
2022-08-14T13:41:55.679Z,99384.16
2022-08-14T13:44:28.812Z,99383.50
2022-08-14T13:46:58.536Z,99387.59
2022-08-14T13:49:29.082Z,99385.38
2022-08-14T13:51:59.777Z,99386.34
2022-08-14T13:54:33.115Z,99381.63
2022-08-14T13:57:03.782Z,99386.41
2022-08-14T13:59:37.677Z,99384.38
2022-08-14T14:02:08.845Z,99383.06
2022-08-14T14:04:41.076Z,99387.91
2022-08-14T14:07:13.231Z,99392.63
2022-08-14T14:09:52.734Z,99392.59
2022-08-14T14:12:38.248Z,99389.88
2022-08-14T14:15:13.547Z,99386.78
2022-08-14T14:17:48.010Z,99386.25
2022-08-14T14:20:35.388Z,99391.75
2022-08-14T14:23:09.487Z,99388.78
2022-08-14T14:25:49.352Z,99395.25
2022-08-14T14:28:31.995Z,99401.72
2022-08-14T14:31:06.928Z,99403.72
2022-08-14T14:33:52.373Z,99398.06
2022-08-14T14:36:27.774Z,99402.03
2022-08-14T14:38:58.815Z,99399.72
2022-08-14T14:41:38.099Z,99401.84
2022-08-14T14:44:09.128Z,99406.22
2022-08-14T14:46:41.648Z,99397.03
2022-08-14T14:49:16.840Z,99393.66
2022-08-14T14:51:51.063Z,99398.72
2022-08-14T14:54:30.922Z,99394.28
2022-08-14T14:57:02.698Z,99397.59
2022-08-14T14:59:33.462Z,99404.28
2022-08-14T15:02:08.206Z,99396.41
2022-08-14T15:04:43.795Z,99405.13
2022-08-14T15:07:13.112Z,99407.63
2022-08-14T15:09:44.980Z,99407.97
2022-08-14T15:12:55.127Z,99406.88
2022-08-14T15:15:08.936Z,99405.31
2022-08-14T15:17:40.811Z,99411.28
2022-08-14T15:20:17.588Z,99416.00
2022-08-14T15:22:58.911Z,99408.31
2022-08-14T15:25:31.997Z,99402.63
2022-08-14T15:28:03.604Z,99394.03
2022-08-14T15:30:33.484Z,99398.22
2022-08-14T15:33:01.998Z,99391.34
2022-08-14T15:35:34.090Z,99385.94
2022-08-14T15:38:08.791Z,99379.44
2022-08-14T15:40:41.176Z,99377.38
2022-08-14T15:43:12.992Z,99366.47
2022-08-14T15:45:45.140Z,99372.50
2022-08-14T15:48:22.688Z,99375.53
2022-08-14T15:50:51.878Z,99378.91
2022-08-14T15:53:22.478Z,99387.97
2022-08-14T15:55:52.896Z,99386.78
2022-08-14T15:58:23.080Z,99397.19
2022-08-14T16:01:11.368Z,99401.03
2022-08-14T16:03:42.499Z,99410.66
2022-08-14T16:06:17.774Z,99409.97
2022-08-14T16:08:50.427Z,99405.50
2022-08-14T16:11:26.754Z,99403.91
2022-08-14T16:13:59.221Z,99418.38
2022-08-14T16:16:34.918Z,99415.28
2022-08-14T16:19:21.266Z,99416.81
2022-08-14T16:22:02.030Z,99420.13
2022-08-14T16:24:59.677Z,99408.13
2022-08-14T16:27:34.173Z,99424.03
2022-08-14T16:30:27.589Z,99429.72
2022-08-14T16:32:57.687Z,99429.03
2022-08-14T16:35:42.765Z,99437.28
2022-08-14T16:38:19.745Z,99431.94
2022-08-14T16:41:26.546Z,99434.66
2022-08-14T16:43:59.326Z,99444.31
2022-08-14T16:46:32.537Z,99438.78
2022-08-14T16:49:01.579Z,99430.97
2022-08-14T16:51:36.512Z,99421.13
2022-08-14T16:54:34.415Z,99420.31
2022-08-14T16:57:13.754Z,99412.69
2022-08-14T16:59:52.430Z,99420.69
2022-08-14T17:02:36.675Z,99426.53
2022-08-14T17:05:18.007Z,99418.81
2022-08-14T17:08:33.313Z,99416.97
2022-08-14T17:11:10.533Z,99420.28
2022-08-14T17:13:58.719Z,99409.00
2022-08-14T17:16:37.234Z,99410.25
2022-08-14T17:19:13.613Z,99410.44
2022-08-14T17:21:47.245Z,99401.97
2022-08-14T17:24:57.130Z,99409.81
2022-08-14T17:27:07.466Z,99409.88
2022-08-14T17:29:44.692Z,99408.75
2022-08-14T17:32:29.984Z,99412.41
2022-08-14T17:35:18.082Z,99416.78
2022-08-14T17:37:55.943Z,99421.41
2022-08-14T17:40:30.964Z,99439.88
2022-08-14T17:43:02.230Z,99435.91
2022-08-14T17:45:49.927Z,99432.59
2022-08-14T17:49:10.074Z,99439.97
2022-08-14T17:51:23.842Z,99439.31
2022-08-14T17:54:02.595Z,99440.78
2022-08-14T17:56:33.092Z,99440.13
2022-08-14T17:59:06.984Z,99433.84
2022-08-14T18:01:38.656Z,99451.19
2022-08-14T18:04:24.645Z,99450.06
2022-08-14T18:07:09.923Z,99443.88
2022-08-14T18:09:57.405Z,99440.34
2022-08-14T18:12:36.919Z,99457.13
2022-08-14T18:15:16.196Z,99465.03
2022-08-14T18:17:52.753Z,99472.47
2022-08-14T18:21:40.069Z,99458.53
2022-08-14T18:23:13.816Z,99460.06
2022-08-14T18:25:50.459Z,99453.56
2022-08-14T18:28:50.904Z,99460.19
2022-08-14T18:31:42.119Z,99460.97
2022-08-14T18:34:30.960Z,99459.47
2022-08-14T18:37:14.280Z,99462.66
2022-08-14T18:40:01.707Z,99464.59
2022-08-14T18:42:44.029Z,99470.41
2022-08-14T18:45:18.631Z,99470.03
2022-08-14T18:48:14.221Z,99462.63
2022-08-14T18:50:52.333Z,99475.47
2022-08-14T18:53:24.508Z,99470.81
2022-08-14T18:55:59.851Z,99480.53
2022-08-14T18:58:46.885Z,99476.59
2022-08-14T19:01:30.209Z,99477.34
2022-08-14T19:04:00.165Z,99475.03
2022-08-14T19:06:56.454Z,99467.25
2022-08-14T19:09:53.890Z,99471.13
2022-08-14T19:13:11.782Z,99457.84
2022-08-14T19:15:44.934Z,99473.91
2022-08-14T19:18:27.852Z,99464.16
2022-08-14T19:20:58.850Z,99467.59
2022-08-14T19:23:43.205Z,99467.25
2022-08-14T19:26:37.180Z,99461.06
2022-08-14T19:29:38.180Z,99465.72
2022-08-14T19:32:40.160Z,99461.00
2022-08-14T19:35:49.829Z,99466.88
2022-08-14T19:38:52.133Z,99458.66
2022-08-14T19:41:23.002Z,99450.91
2022-08-14T19:43:57.174Z,99454.78
2022-08-14T19:46:38.832Z,99452.06
2022-08-14T19:49:21.343Z,99447.41
2022-08-14T19:51:52.765Z,99445.50
2022-08-14T19:54:31.210Z,99453.34
2022-08-14T19:57:03.716Z,99454.56
2022-08-14T19:59:36.740Z,99451.44
2022-08-14T20:02:29.984Z,99458.03
2022-08-14T20:05:03.865Z,99458.50
2022-08-14T20:07:59.054Z,99449.16
2022-08-14T20:11:08.261Z,99458.97
2022-08-14T20:13:32.247Z,99459.00
2022-08-14T20:16:12.305Z,99456.66
2022-08-14T20:18:50.737Z,99463.34
2022-08-14T20:21:20.042Z,99455.97
2022-08-14T20:23:50.461Z,99452.09
2022-08-14T20:26:30.979Z,99446.78
2022-08-14T20:29:04.913Z,99435.47
2022-08-14T20:31:37.614Z,99428.91
2022-08-14T20:34:24.889Z,99435.16
2022-08-14T20:37:09.935Z,99430.88
2022-08-14T20:39:54.357Z,99430.91
2022-08-14T20:42:43.772Z,99429.69
2022-08-14T20:45:21.641Z,99429.66
2022-08-14T20:47:57.736Z,99437.84
2022-08-14T20:50:28.623Z,99437.44
2022-08-14T20:52:58.167Z,99437.84
2022-08-14T20:55:32.273Z,99445.56
2022-08-14T20:58:03.765Z,99448.28
2022-08-14T21:00:52.632Z,99444.06
2022-08-14T21:03:56.374Z,99444.03
2022-08-14T21:06:28.560Z,99435.50
2022-08-14T21:09:01.861Z,99434.75
2022-08-14T21:11:31.442Z,99438.25
2022-08-14T21:14:20.986Z,99435.16
2022-08-14T21:16:59.144Z,99451.09
2022-08-14T21:19:30.189Z,99449.91
2022-08-14T21:22:01.669Z,99453.41
2022-08-14T21:24:39.391Z,99448.28
2022-08-14T21:27:20.397Z,99456.91
2022-08-14T21:29:54.356Z,99455.34
2022-08-14T21:32:47.337Z,99451.53
2022-08-14T21:35:28.769Z,99459.75
2022-08-14T21:37:58.788Z,99450.03
2022-08-14T21:40:42.245Z,99438.00
2022-08-14T21:43:18.009Z,99437.16
2022-08-14T21:45:53.275Z,99427.50
2022-08-14T21:48:25.277Z,99435.72
2022-08-14T21:51:01.047Z,99435.34
2022-08-14T21:53:58.236Z,99432.59
2022-08-14T21:56:37.620Z,99437.69
2022-08-14T21:59:08.161Z,99427.59
2022-08-14T22:02:01.240Z,99424.88
2022-08-14T22:04:33.095Z,99419.38
2022-08-14T22:07:03.776Z,99421.34
2022-08-14T22:09:36.525Z,99413.88
2022-08-14T22:12:08.138Z,99418.16
2022-08-14T22:14:43.131Z,99418.16
2022-08-14T22:17:16.140Z,99420.06
2022-08-14T22:19:54.908Z,99429.03
2022-08-14T22:22:27.244Z,99420.06
2022-08-14T22:25:00.080Z,99425.06
2022-08-14T22:27:29.731Z,99428.16
2022-08-14T22:30:01.745Z,99429.69
2022-08-14T22:32:35.498Z,99419.94
2022-08-14T22:35:18.916Z,99426.53
2022-08-14T22:38:36.623Z,99427.28
2022-08-14T22:41:15.027Z,99438.88
2022-08-14T22:43:35.942Z,99438.00
2022-08-14T22:46:06.108Z,99445.81
2022-08-14T22:48:44.437Z,99437.78
2022-08-14T22:51:13.730Z,99433.63
2022-08-14T22:53:44.978Z,99436.41
2022-08-14T22:56:20.585Z,99437.97
2022-08-14T22:58:53.941Z,99441.19
2022-08-14T23:01:55.596Z,99441.69
2022-08-14T23:04:34.950Z,99434.72
2022-08-14T23:07:14.421Z,99438.25
2022-08-14T23:09:55.856Z,99435.41
2022-08-14T23:12:31.767Z,99426.06
2022-08-14T23:15:04.003Z,99419.06
2022-08-14T23:17:38.993Z,99417.13
2022-08-14T23:20:19.156Z,99424.63
2022-08-14T23:22:51.232Z,99413.75
2022-08-14T23:25:58.471Z,99418.38
2022-08-14T23:28:34.309Z,99423.69
2022-08-14T23:31:08.164Z,99421.38
2022-08-14T23:33:41.950Z,99425.34
2022-08-14T23:36:31.867Z,99412.88
2022-08-14T23:39:07.188Z,99412.16
2022-08-14T23:41:45.895Z,99412.88
2022-08-14T23:44:16.223Z,99417.59
2022-08-14T23:46:44.837Z,99414.91
2022-08-14T23:49:12.960Z,99421.09
2022-08-14T23:51:41.901Z,99430.13
2022-08-14T23:54:48.975Z,99429.66
2022-08-14T23:57:02.337Z,99438.22
2022-08-14T23:59:31.596Z,99438.16
